Terminal Aerodrome Forecast
Issued by NWS Medford, OR

Home | Current Version | Previous Version | Text Only | Print | Product List | Glossary On
Versions: 1 2 3 4 5 6 7 8 9 10 11 12 13 14 15 16
000
FTUS46 KMFR 241739
TAFMFR
TAF
KMFR 241739Z 2418/2518 VRB03KT P6SM BKN035
     FM242000 32010KT P6SM SCT035
     FM250300 35004KT P6SM SKC
     FM251000 00000KT P6SM BKN030=

USA.gov is the U.S. government's official web portal to all federal, state and local government web resources and services.